createdAt,value
2023-05-07T00:02:22.618Z,100949.69
2023-05-07T00:04:50.295Z,100949.53
2023-05-07T00:07:18.435Z,100951.91
2023-05-07T00:09:46.140Z,100952.38
2023-05-07T00:12:13.704Z,100956.56
2023-05-07T00:14:41.574Z,100951.31
2023-05-07T00:17:09.153Z,100949.03
2023-05-07T00:19:37.142Z,100936.63
2023-05-07T00:22:04.619Z,100935.69
2023-05-07T00:24:32.205Z,100938.34
2023-05-07T00:26:59.678Z,100942.19
2023-05-07T00:29:27.240Z,100940.06
2023-05-07T00:31:55.975Z,100945.59
2023-05-07T00:34:24.126Z,100945.66
2023-05-07T00:36:51.638Z,100951.47
2023-05-07T00:39:19.129Z,100947.22
2023-05-07T00:41:47.179Z,100939.75
2023-05-07T00:44:15.479Z,100947.53
2023-05-07T00:46:43.644Z,100944.31
2023-05-07T00:49:11.863Z,100940.69
2023-05-07T00:51:39.356Z,100942.38
2023-05-07T00:54:07.016Z,100947.88
2023-05-07T00:56:35.489Z,100943.41
2023-05-07T00:59:04.272Z,100939.56
2023-05-07T01:01:32.683Z,100941.72
2023-05-07T01:04:00.563Z,100940.03
2023-05-07T01:06:30.646Z,100942.00
2023-05-07T01:08:59.263Z,100939.69
2023-05-07T01:11:27.384Z,100936.22
2023-05-07T01:13:56.038Z,100939.88
2023-05-07T01:16:24.258Z,100941.50
2023-05-07T01:18:52.000Z,100934.84
2023-05-07T01:21:20.105Z,100935.84
2023-05-07T01:23:48.462Z,100931.72
2023-05-07T01:26:16.167Z,100934.25
2023-05-07T01:28:47.097Z,100933.03
2023-05-07T01:31:15.431Z,100934.25
2023-05-07T01:33:45.869Z,100928.78
2023-05-07T01:36:15.444Z,100921.97
2023-05-07T01:38:43.583Z,100923.25
2023-05-07T01:41:12.620Z,100925.78
2023-05-07T01:43:42.457Z,100934.09
2023-05-07T01:46:11.516Z,100931.88
2023-05-07T01:48:40.734Z,100932.69
2023-05-07T01:51:10.129Z,100935.66
2023-05-07T01:53:38.454Z,100925.88
2023-05-07T01:56:06.513Z,100933.13
2023-05-07T01:58:35.838Z,100936.50
2023-05-07T02:01:03.443Z,100932.41
2023-05-07T02:03:31.943Z,100935.97
2023-05-07T02:06:08.705Z,100937.22
2023-05-07T02:08:40.138Z,100937.13
2023-05-07T02:11:07.819Z,100940.81
2023-05-07T02:13:37.671Z,100934.22
2023-05-07T02:16:06.812Z,100937.34
2023-05-07T02:18:34.837Z,100939.25
2023-05-07T02:21:02.370Z,100941.06
2023-05-07T02:23:29.905Z,100934.22
2023-05-07T02:25:57.923Z,100930.28
2023-05-07T02:28:25.519Z,100939.06
2023-05-07T02:30:59.666Z,100934.84
2023-05-07T02:33:27.614Z,100930.56
2023-05-07T02:35:55.705Z,100934.34
2023-05-07T02:38:23.846Z,100926.22
2023-05-07T02:40:51.500Z,100931.09
2023-05-07T02:43:19.464Z,100936.78
2023-05-07T02:45:49.282Z,100933.25
2023-05-07T02:48:17.134Z,100937.94
2023-05-07T02:50:45.192Z,100938.34
2023-05-07T02:53:15.532Z,100935.69
2023-05-07T02:55:43.475Z,100930.03
2023-05-07T02:58:11.004Z,100935.34
2023-05-07T03:00:41.332Z,100941.66
2023-05-07T03:03:20.095Z,100937.94
2023-05-07T03:05:48.406Z,100936.97
2023-05-07T03:08:16.508Z,100937.59
2023-05-07T03:10:44.454Z,100936.09
2023-05-07T03:13:12.225Z,100941.13
2023-05-07T03:15:40.525Z,100938.28
2023-05-07T03:18:08.390Z,100940.66
2023-05-07T03:20:37.500Z,100942.25
2023-05-07T03:23:05.349Z,100941.97
2023-05-07T03:25:33.418Z,100942.25
2023-05-07T03:28:01.570Z,100930.50
2023-05-07T03:30:38.511Z,100935.41
2023-05-07T03:33:06.540Z,100933.31
2023-05-07T03:35:34.735Z,100941.34
2023-05-07T03:38:02.588Z,100942.19
2023-05-07T03:40:33.392Z,100931.91
2023-05-07T03:43:02.044Z,100934.66
2023-05-07T03:45:31.937Z,100939.69
2023-05-07T03:48:08.911Z,100936.94
2023-05-07T03:50:37.252Z,100942.03
2023-05-07T03:53:04.771Z,100937.28
2023-05-07T03:55:36.705Z,100944.00
2023-05-07T03:58:04.239Z,100937.75
2023-05-07T04:00:34.701Z,100941.69
2023-05-07T04:03:02.879Z,100938.28
2023-05-07T04:05:32.457Z,100936.22
2023-05-07T04:08:03.468Z,100928.59
2023-05-07T04:10:42.760Z,100934.53
2023-05-07T04:13:12.705Z,100934.94
2023-05-07T04:15:40.385Z,100935.53
2023-05-07T04:18:13.797Z,100946.94
2023-05-07T04:20:45.521Z,100937.50
2023-05-07T04:23:16.299Z,100943.09
2023-05-07T04:25:44.442Z,100944.16
2023-05-07T04:28:21.680Z,100947.50
2023-05-07T04:30:50.136Z,100942.16
2023-05-07T04:33:18.408Z,100945.72
2023-05-07T04:35:47.285Z,100945.84
2023-05-07T04:38:15.331Z,100945.78
2023-05-07T04:40:43.646Z,100955.97
2023-05-07T04:43:15.229Z,100957.84
2023-05-07T04:45:47.685Z,100966.09
2023-05-07T04:48:17.172Z,100968.22
2023-05-07T04:50:45.274Z,100961.56
2023-05-07T04:53:15.194Z,100974.38
2023-05-07T04:55:42.756Z,100970.22
2023-05-07T04:58:10.654Z,100969.84
2023-05-07T05:00:41.138Z,100975.00
2023-05-07T05:03:09.164Z,100975.25
2023-05-07T05:05:39.174Z,100977.81
2023-05-07T05:08:07.306Z,100985.41
2023-05-07T05:10:37.559Z,100982.75
2023-05-07T05:13:07.095Z,100987.59
2023-05-07T05:15:35.178Z,100992.03
2023-05-07T05:18:04.158Z,100998.56
2023-05-07T05:20:32.596Z,100994.94
2023-05-07T05:23:00.160Z,101003.44
2023-05-07T05:25:28.687Z,101009.59
2023-05-07T05:27:57.619Z,101015.41
2023-05-07T05:30:25.721Z,101011.56
2023-05-07T05:32:53.454Z,101014.81
2023-05-07T05:35:21.051Z,101014.59
2023-05-07T05:37:49.273Z,101017.53
2023-05-07T05:40:18.518Z,101010.53
2023-05-07T05:42:47.491Z,101004.34
2023-05-07T05:45:15.781Z,101008.56
2023-05-07T05:47:43.748Z,101001.25
2023-05-07T05:50:11.667Z,101010.94
2023-05-07T05:52:39.584Z,101008.00
2023-05-07T05:55:07.688Z,101009.66
2023-05-07T05:57:37.434Z,101004.41
2023-05-07T06:00:05.706Z,101000.03
2023-05-07T06:02:35.290Z,101009.22
2023-05-07T06:05:05.138Z,101004.41
2023-05-07T06:07:32.846Z,101015.56
2023-05-07T06:10:00.350Z,101009.41
2023-05-07T06:12:29.511Z,101010.88
2023-05-07T06:14:57.406Z,101014.75
2023-05-07T06:17:25.993Z,101009.25
2023-05-07T06:19:54.053Z,101006.22
2023-05-07T06:22:22.343Z,101011.50
2023-05-07T06:24:50.348Z,101014.66
2023-05-07T06:27:18.009Z,101008.50
2023-05-07T06:29:46.546Z,101006.78
2023-05-07T06:32:18.164Z,101012.75
2023-05-07T06:34:47.314Z,101009.66
2023-05-07T06:37:16.163Z,101011.06
2023-05-07T06:40:13.736Z,101016.28
2023-05-07T06:42:43.319Z,101005.22
2023-05-07T06:45:29.933Z,101011.63
2023-05-07T06:47:58.841Z,101014.59
2023-05-07T06:50:27.985Z,101024.31
2023-05-07T06:52:58.652Z,101017.31
2023-05-07T06:55:27.035Z,101026.25
2023-05-07T06:57:56.534Z,101026.75
2023-05-07T07:00:26.140Z,101020.53
2023-05-07T07:02:57.024Z,101012.97
2023-05-07T07:05:28.262Z,101018.69
2023-05-07T07:07:57.167Z,101020.97
2023-05-07T07:10:25.624Z,101019.56
2023-05-07T07:12:55.107Z,101018.50
2023-05-07T07:15:25.987Z,101022.59
2023-05-07T07:17:54.939Z,101017.28
2023-05-07T07:20:24.324Z,101016.38
2023-05-07T07:22:52.402Z,101011.91
2023-05-07T07:25:20.122Z,101015.44
2023-05-07T07:27:50.542Z,101010.13
2023-05-07T07:30:18.500Z,101009.81
2023-05-07T07:32:49.593Z,101004.41
2023-05-07T07:35:17.478Z,101007.75
2023-05-07T07:37:46.445Z,101006.56
2023-05-07T07:40:15.798Z,101005.34
2023-05-07T07:42:44.483Z,101007.34
2023-05-07T07:45:13.459Z,101005.16
2023-05-07T07:47:46.189Z,101002.28
2023-05-07T07:50:21.955Z,101003.59
2023-05-07T07:53:01.482Z,101004.84
2023-05-07T07:55:29.998Z,101002.03
2023-05-07T07:57:57.669Z,101014.88
2023-05-07T08:00:26.173Z,101017.50
2023-05-07T08:02:57.478Z,101019.25
2023-05-07T08:05:30.716Z,101012.38
2023-05-07T08:07:59.751Z,101016.19
2023-05-07T08:10:35.632Z,101015.63
2023-05-07T08:13:09.145Z,101016.94
2023-05-07T08:15:39.040Z,101015.06
2023-05-07T08:18:07.370Z,101017.06
2023-05-07T08:20:40.397Z,101027.94
2023-05-07T08:23:11.138Z,101024.47
2023-05-07T08:25:41.171Z,101030.72
2023-05-07T08:28:10.203Z,101032.78
2023-05-07T08:30:39.604Z,101035.22
2023-05-07T08:33:07.620Z,101030.06
2023-05-07T08:35:35.262Z,101033.78
2023-05-07T08:38:03.552Z,101029.38
2023-05-07T08:40:39.959Z,101030.16
2023-05-07T08:43:14.390Z,101039.69
2023-05-07T08:45:43.240Z,101026.47
2023-05-07T08:48:18.351Z,101030.50
2023-05-07T08:50:53.112Z,101020.38
2023-05-07T08:53:24.587Z,101025.84
2023-05-07T08:55:54.575Z,101026.22
2023-05-07T08:58:22.307Z,101032.88
2023-05-07T09:00:53.234Z,101025.72
2023-05-07T09:03:22.250Z,101031.91
2023-05-07T09:05:52.572Z,101021.97
2023-05-07T09:08:27.510Z,101018.31
2023-05-07T09:10:57.393Z,101021.63
2023-05-07T09:13:25.910Z,101017.19
2023-05-07T09:15:53.865Z,101021.50
2023-05-07T09:18:23.000Z,101020.09
2023-05-07T09:20:52.035Z,101021.34
2023-05-07T09:23:22.088Z,101019.59
2023-05-07T09:25:49.906Z,101015.09
2023-05-07T09:28:25.554Z,101009.72
2023-05-07T09:30:54.018Z,101008.81
2023-05-07T09:33:21.914Z,101013.44
2023-05-07T09:35:53.530Z,101016.34
2023-05-07T09:38:22.750Z,101014.03
2023-05-07T09:41:08.115Z,101024.78
2023-05-07T09:43:42.612Z,101011.84
2023-05-07T09:46:16.355Z,101005.78
2023-05-07T09:48:53.562Z,101009.22
2023-05-07T09:51:35.153Z,101009.09
2023-05-07T09:54:04.466Z,101012.75
2023-05-07T09:56:35.527Z,101013.41
2023-05-07T09:59:05.074Z,101008.84
2023-05-07T10:01:37.136Z,101009.09
2023-05-07T10:04:06.570Z,101009.91
2023-05-07T10:06:35.993Z,101003.00
2023-05-07T10:09:06.652Z,100992.59
2023-05-07T10:11:36.313Z,101001.72
2023-05-07T10:14:06.886Z,100995.69
2023-05-07T10:16:37.744Z,100995.34
2023-05-07T10:19:11.192Z,100997.50
2023-05-07T10:21:45.667Z,100992.09
2023-05-07T10:24:37.785Z,100986.75
2023-05-07T10:27:15.480Z,100973.66
2023-05-07T10:30:16.848Z,100971.06
2023-05-07T10:32:54.110Z,100979.63
2023-05-07T10:35:33.812Z,100980.59
2023-05-07T10:38:05.066Z,100978.53
2023-05-07T10:40:36.865Z,100977.84
2023-05-07T10:43:10.026Z,100988.06
2023-05-07T10:46:19.625Z,100985.00
2023-05-07T10:49:07.328Z,100979.59
2023-05-07T10:52:21.725Z,100974.09
2023-05-07T10:55:22.788Z,100971.25
2023-05-07T10:58:31.439Z,100970.22
2023-05-07T11:01:57.186Z,100978.94
2023-05-07T11:04:39.995Z,100970.38
2023-05-07T11:07:28.230Z,100965.88
2023-05-07T11:10:02.684Z,100969.94
2023-05-07T11:12:57.521Z,100959.53
2023-05-07T11:15:44.407Z,100958.34
2023-05-07T11:18:53.769Z,100946.75
2023-05-07T11:21:42.199Z,100950.09
2023-05-07T11:24:42.080Z,100944.34
2023-05-07T11:27:10.360Z,100941.44
2023-05-07T11:29:38.188Z,100946.19
2023-05-07T11:32:13.840Z,100943.22
2023-05-07T11:34:57.241Z,100932.47
2023-05-07T11:37:28.530Z,100937.22
2023-05-07T11:40:10.479Z,100937.47
2023-05-07T11:42:42.228Z,100932.75
2023-05-07T11:45:11.271Z,100937.75
2023-05-07T11:47:39.342Z,100931.75
2023-05-07T11:50:12.120Z,100930.13
2023-05-07T11:52:40.382Z,100936.13
2023-05-07T11:55:09.198Z,100935.56
2023-05-07T11:57:36.967Z,100935.66
2023-05-07T12:00:06.477Z,100926.88
2023-05-07T12:02:46.714Z,100932.41
2023-05-07T12:05:14.899Z,100931.41
2023-05-07T12:07:42.734Z,100928.72
2023-05-07T12:10:12.849Z,100933.69
2023-05-07T12:12:43.072Z,100934.53
2023-05-07T12:15:14.144Z,100940.56
2023-05-07T12:17:41.991Z,100929.28
2023-05-07T12:20:11.575Z,100935.56
2023-05-07T12:22:39.785Z,100930.81
2023-05-07T12:25:08.304Z,100939.13
2023-05-07T12:27:40.094Z,100933.97
2023-05-07T12:30:11.039Z,100934.19
2023-05-07T12:32:38.652Z,100930.38
2023-05-07T12:35:07.701Z,100932.06
2023-05-07T12:37:39.970Z,100938.44
2023-05-07T12:40:10.031Z,100930.56
2023-05-07T12:42:39.531Z,100914.72
2023-05-07T12:45:14.970Z,100917.81
2023-05-07T12:47:49.596Z,100923.00
2023-05-07T12:50:18.160Z,100911.47
2023-05-07T12:52:48.032Z,100908.31
2023-05-07T12:55:17.451Z,100907.56
2023-05-07T12:57:54.653Z,100916.44
2023-05-07T13:00:37.560Z,100914.69
2023-05-07T13:03:06.168Z,100901.13
2023-05-07T13:05:33.799Z,100893.72
2023-05-07T13:08:02.917Z,100902.22
2023-05-07T13:10:30.943Z,100899.00
2023-05-07T13:12:58.643Z,100894.13
2023-05-07T13:15:28.100Z,100894.72
2023-05-07T13:17:56.620Z,100891.22
2023-05-07T13:20:25.102Z,100883.00
2023-05-07T13:22:52.746Z,100884.75
2023-05-07T13:25:20.418Z,100881.25
2023-05-07T13:27:53.986Z,100874.09
2023-05-07T13:30:28.249Z,100881.28
2023-05-07T13:32:57.398Z,100871.13
2023-05-07T13:35:25.842Z,100870.78
2023-05-07T13:37:53.913Z,100880.59
2023-05-07T13:40:23.430Z,100869.38
2023-05-07T13:42:52.049Z,100866.16
2023-05-07T13:45:20.547Z,100868.47
2023-05-07T13:47:50.608Z,100856.91
2023-05-07T13:50:18.752Z,100863.19
2023-05-07T13:52:51.784Z,100858.72
2023-05-07T13:55:20.628Z,100863.81
2023-05-07T13:57:49.181Z,100867.19
2023-05-07T14:00:17.386Z,100866.03
2023-05-07T14:02:45.578Z,100855.34
2023-05-07T14:05:14.593Z,100848.56
2023-05-07T14:07:42.182Z,100846.72
2023-05-07T14:10:11.014Z,100853.03
2023-05-07T14:12:39.393Z,100840.06
2023-05-07T14:15:07.583Z,100842.28
2023-05-07T14:17:35.239Z,100842.44
2023-05-07T14:20:03.581Z,100839.56
2023-05-07T14:22:31.595Z,100840.25
2023-05-07T14:25:14.562Z,100832.75
2023-05-07T14:27:44.601Z,100828.81
2023-05-07T14:30:13.130Z,100835.28
2023-05-07T14:32:40.706Z,100835.66
2023-05-07T14:35:09.463Z,100842.28
2023-05-07T14:37:37.142Z,100836.34
2023-05-07T14:40:05.528Z,100838.22
2023-05-07T14:42:33.118Z,100835.66
2023-05-07T14:45:01.346Z,100840.34
2023-05-07T14:47:28.937Z,100837.91
2023-05-07T14:49:58.375Z,100833.72
2023-05-07T14:52:27.086Z,100828.19
2023-05-07T14:54:54.656Z,100836.06
2023-05-07T14:57:22.705Z,100834.94
2023-05-07T14:59:50.231Z,100828.34
2023-05-07T15:02:21.207Z,100836.53
2023-05-07T15:04:49.735Z,100833.19
2023-05-07T15:07:17.429Z,100830.91
2023-05-07T15:09:45.709Z,100833.28
2023-05-07T15:12:13.600Z,100825.03
2023-05-07T15:14:41.653Z,100830.34
2023-05-07T15:17:09.299Z,100821.31
2023-05-07T15:19:37.468Z,100831.81
2023-05-07T15:22:06.788Z,100826.41
2023-05-07T15:24:34.662Z,100816.09
2023-05-07T15:27:04.113Z,100834.16
2023-05-07T15:29:32.789Z,100830.63
2023-05-07T15:32:01.785Z,100817.13
2023-05-07T15:34:29.522Z,100814.09
2023-05-07T15:36:58.342Z,100825.16
2023-05-07T15:39:25.986Z,100825.84
2023-05-07T15:41:54.075Z,100825.63
2023-05-07T15:44:22.230Z,100823.13
2023-05-07T15:46:50.677Z,100829.72
2023-05-07T15:49:18.682Z,100819.94
2023-05-07T15:51:46.655Z,100830.34
2023-05-07T15:54:14.505Z,100825.72
2023-05-07T15:56:42.027Z,100821.78
2023-05-07T15:59:10.310Z,100815.56
2023-05-07T16:01:38.084Z,100823.44
2023-05-07T16:04:08.288Z,100821.09
2023-05-07T16:06:35.864Z,100826.22
2023-05-07T16:09:04.132Z,100826.31
2023-05-07T16:11:34.011Z,100823.97
2023-05-07T16:14:02.204Z,100818.00
2023-05-07T16:16:34.063Z,100818.66
2023-05-07T16:19:02.556Z,100818.81
2023-05-07T16:21:30.942Z,100814.72
2023-05-07T16:23:59.521Z,100809.53
2023-05-07T16:26:27.198Z,100811.41
2023-05-07T16:28:54.899Z,100802.97
2023-05-07T16:31:22.695Z,100807.66
2023-05-07T16:33:50.853Z,100803.38
2023-05-07T16:36:19.513Z,100804.16
2023-05-07T16:38:47.379Z,100803.03
2023-05-07T16:41:15.602Z,100805.44
2023-05-07T16:43:43.561Z,100814.91
2023-05-07T16:46:11.984Z,100808.78
2023-05-07T16:48:39.841Z,100811.25
2023-05-07T16:51:08.429Z,100810.59
2023-05-07T16:53:36.045Z,100816.34
2023-05-07T16:56:06.736Z,100817.94
2023-05-07T16:58:34.995Z,100819.06
2023-05-07T17:01:02.713Z,100827.22
2023-05-07T17:03:32.325Z,100826.53
2023-05-07T17:06:00.177Z,100832.72
2023-05-07T17:08:27.825Z,100833.31
2023-05-07T17:10:55.842Z,100827.25
2023-05-07T17:13:23.820Z,100837.28
2023-05-07T17:15:53.922Z,100835.03
2023-05-07T17:18:21.598Z,100839.34
2023-05-07T17:20:49.609Z,100839.00
2023-05-07T17:23:18.375Z,100842.81
2023-05-07T17:25:46.377Z,100834.56
2023-05-07T17:28:14.410Z,100844.13
2023-05-07T17:30:42.718Z,100839.47
2023-05-07T17:33:20.257Z,100846.41
2023-05-07T17:35:50.221Z,100847.25
2023-05-07T17:38:18.498Z,100844.75
2023-05-07T17:40:47.016Z,100849.28
2023-05-07T17:43:15.773Z,100856.28
2023-05-07T17:45:43.407Z,100855.72
2023-05-07T17:48:11.509Z,100849.69
2023-05-07T17:50:39.737Z,100848.47
2023-05-07T17:53:09.811Z,100860.69
2023-05-07T17:55:42.355Z,100846.81
2023-05-07T17:58:10.158Z,100854.66
2023-05-07T18:00:39.100Z,100847.19
2023-05-07T18:03:07.289Z,100848.22
2023-05-07T18:05:38.255Z,100848.66
2023-05-07T18:08:10.140Z,100853.97
2023-05-07T18:10:37.885Z,100857.06
2023-05-07T18:13:05.893Z,100858.72
2023-05-07T18:15:33.551Z,100858.00
2023-05-07T18:18:01.710Z,100862.97
2023-05-07T18:20:29.921Z,100859.41
2023-05-07T18:22:57.572Z,100856.28
2023-05-07T18:25:25.121Z,100861.19
2023-05-07T18:27:53.596Z,100870.25
2023-05-07T18:30:25.162Z,100873.50
2023-05-07T18:32:53.284Z,100868.66
2023-05-07T18:35:23.378Z,100868.91
2023-05-07T18:37:51.480Z,100866.91
2023-05-07T18:40:21.078Z,100869.97
2023-05-07T18:42:48.810Z,100880.13
2023-05-07T18:45:16.604Z,100884.31
2023-05-07T18:47:44.245Z,100890.88
2023-05-07T18:50:12.277Z,100892.19
2023-05-07T18:52:41.270Z,100898.97
2023-05-07T18:55:11.795Z,100900.88
2023-05-07T18:57:40.089Z,100911.25
2023-05-07T19:00:09.328Z,100902.28
2023-05-07T19:02:38.008Z,100905.88
2023-05-07T19:05:07.008Z,100897.66
2023-05-07T19:07:34.720Z,100902.72
2023-05-07T19:10:05.720Z,100903.38
2023-05-07T19:12:33.983Z,100900.38
2023-05-07T19:15:01.572Z,100903.72
2023-05-07T19:17:30.265Z,100903.50
2023-05-07T19:19:58.414Z,100903.72
2023-05-07T19:22:27.011Z,100908.16
2023-05-07T19:24:54.960Z,100904.50
2023-05-07T19:27:22.679Z,100910.53
2023-05-07T19:29:51.122Z,100922.75
2023-05-07T19:32:21.481Z,100925.06
2023-05-07T19:34:50.178Z,100926.59
2023-05-07T19:37:18.429Z,100924.94
2023-05-07T19:39:46.701Z,100923.81
2023-05-07T19:42:14.813Z,100927.69
2023-05-07T19:44:42.451Z,100938.31
2023-05-07T19:47:10.119Z,100941.22
2023-05-07T19:49:37.795Z,100949.88
2023-05-07T19:52:05.903Z,100950.84
2023-05-07T19:54:33.656Z,100953.44
2023-05-07T19:57:01.746Z,100960.03
2023-05-07T19:59:29.765Z,100965.47
2023-05-07T20:01:57.343Z,100962.41
2023-05-07T20:04:33.042Z,100960.72
2023-05-07T20:07:00.970Z,100965.78
2023-05-07T20:09:29.161Z,100960.56
2023-05-07T20:11:57.199Z,100962.50
2023-05-07T20:14:25.017Z,100959.53
2023-05-07T20:16:52.693Z,100965.78
2023-05-07T20:19:20.585Z,100979.34
2023-05-07T20:21:48.964Z,100983.13
2023-05-07T20:24:19.255Z,100973.72
2023-05-07T20:26:47.401Z,100973.38
2023-05-07T20:29:15.621Z,100967.19
2023-05-07T20:31:44.398Z,100955.44
2023-05-07T20:34:12.651Z,100956.31
2023-05-07T20:36:41.172Z,100951.59
2023-05-07T20:39:09.707Z,100954.97
2023-05-07T20:41:37.554Z,100951.03
2023-05-07T20:44:05.768Z,100954.03
2023-05-07T20:46:33.860Z,100954.69
2023-05-07T20:49:01.555Z,100960.88
2023-05-07T20:51:30.483Z,100973.41
2023-05-07T20:53:58.224Z,100968.56
2023-05-07T20:56:26.785Z,100973.91
2023-05-07T20:58:54.516Z,100968.06
2023-05-07T21:01:25.146Z,100985.38
2023-05-07T21:03:54.284Z,100987.91
2023-05-07T21:06:21.951Z,100992.66
2023-05-07T21:08:49.504Z,101012.78
2023-05-07T21:11:18.230Z,101009.78
2023-05-07T21:13:46.761Z,101013.50
2023-05-07T21:16:14.589Z,101014.84
2023-05-07T21:18:42.408Z,101010.97
2023-05-07T21:21:11.160Z,101018.34
2023-05-07T21:23:38.810Z,101015.88
2023-05-07T21:26:06.565Z,101017.41
2023-05-07T21:28:34.739Z,101018.09
2023-05-07T21:31:02.462Z,101019.19
2023-05-07T21:33:30.694Z,101029.16
2023-05-07T21:36:00.467Z,101027.28
2023-05-07T21:38:28.114Z,101040.78
2023-05-07T21:40:57.336Z,101059.19
2023-05-07T21:43:25.101Z,101095.66
2023-05-07T21:45:52.687Z,101124.41
2023-05-07T21:48:23.821Z,101131.44
2023-05-07T21:51:06.334Z,101136.44
2023-05-07T21:53:35.314Z,101125.44
2023-05-07T21:56:05.070Z,101107.91
2023-05-07T21:58:33.392Z,101091.94
2023-05-07T22:01:01.920Z,101101.53
2023-05-07T22:03:30.244Z,101112.09
2023-05-07T22:05:58.760Z,101117.44
2023-05-07T22:08:26.430Z,101123.91
2023-05-07T22:10:53.948Z,101125.91
2023-05-07T22:13:21.639Z,101132.69
2023-05-07T22:15:57.295Z,101135.94
2023-05-07T22:18:26.867Z,101146.94
2023-05-07T22:20:54.779Z,101153.78
2023-05-07T22:23:23.044Z,101157.56
2023-05-07T22:25:50.753Z,101148.81
2023-05-07T22:28:19.064Z,101141.41
2023-05-07T22:30:48.259Z,101142.19
2023-05-07T22:33:15.880Z,101142.50
2023-05-07T22:35:43.530Z,101137.44
2023-05-07T22:38:11.342Z,101141.53
2023-05-07T22:40:39.882Z,101145.72
2023-05-07T22:43:07.538Z,101147.22
2023-05-07T22:45:35.905Z,101145.56
2023-05-07T22:48:04.200Z,101151.56
2023-05-07T22:50:32.276Z,101157.59
2023-05-07T22:52:59.955Z,101164.94
2023-05-07T22:55:27.505Z,101163.88
2023-05-07T22:57:55.299Z,101161.34
2023-05-07T23:00:22.949Z,101148.66
2023-05-07T23:02:51.649Z,101145.16
2023-05-07T23:05:20.530Z,101146.84
2023-05-07T23:07:48.495Z,101150.91
2023-05-07T23:10:16.624Z,101166.13
2023-05-07T23:12:49.102Z,101170.63
2023-05-07T23:15:18.082Z,101173.91
2023-05-07T23:17:47.728Z,101170.22
2023-05-07T23:20:15.725Z,101168.66
2023-05-07T23:22:43.229Z,101169.25
2023-05-07T23:25:11.449Z,101177.28
2023-05-07T23:27:39.675Z,101183.72
2023-05-07T23:30:08.870Z,101162.91
2023-05-07T23:32:37.014Z,101158.31
2023-05-07T23:35:05.676Z,101161.06
2023-05-07T23:37:33.205Z,101141.13
2023-05-07T23:40:01.376Z,101131.59
2023-05-07T23:42:29.410Z,101117.50
2023-05-07T23:44:57.717Z,101106.75
2023-05-07T23:47:25.930Z,101096.56
2023-05-07T23:49:53.591Z,101098.09
2023-05-07T23:52:22.085Z,101095.97
2023-05-07T23:54:49.923Z,101096.97
2023-05-07T23:57:17.697Z,101094.97
2023-05-07T23:59:45.420Z,101092.91
